Time;durP1;ratioP1;P1;durP2;ratioP2;P2;SDS_P1;SDS_P2;PMS_P1;PMS_P2;Temp;Humidity;BMP_temperature;BMP_pressure;BME280_temperature;BME280_humidity;BME280_pressure;Samples;Min_cycle;Max_cycle;Signal;HPM_P1;HPM_P2
2021/01/29 00:02:11;;;;;;;1.77;0.47;;;9.20;99.90;;;;;;5089642;28;20101;-61
2021/01/29 00:04:39;;;;;;;0.68;0.50;;;9.20;99.90;;;;;;5091653;28;20434;-61
2021/01/29 00:07:07;;;;;;;0.93;0.63;;;9.20;99.90;;;;;;5093110;28;20040;-61
2021/01/29 00:09:34;;;;;;;1.27;0.50;;;9.10;99.90;;;;;;5093255;28;20118;-61
2021/01/29 00:12:00;;;;;;;0.40;0.22;;;9.10;99.90;;;;;;5092445;28;20024;-61
2021/01/29 00:14:25;;;;;;;2.30;0.60;;;9.00;99.90;;;;;;5093003;28;20032;-62
2021/01/29 00:16:51;;;;;;;2.25;0.35;;;8.90;99.90;;;;;;5092421;28;20145;-63
2021/01/29 00:19:17;;;;;;;0.90;0.50;;;8.90;99.90;;;;;;5092548;28;20073;-63
2021/01/29 00:21:42;;;;;;;0.65;0.40;;;8.80;99.90;;;;;;5092977;28;20449;-61
2021/01/29 00:24:11;;;;;;;1.60;0.50;;;8.70;99.90;;;;;;5091323;28;20020;-61
2021/01/29 00:26:36;;;;;;;1.30;0.82;;;8.70;99.90;;;;;;5093006;28;20028;-62
2021/01/29 00:29:03;;;;;;;1.58;0.60;;;8.60;99.90;;;;;;5091771;28;20024;-63
2021/01/29 00:31:28;;;;;;;0.82;0.47;;;8.60;99.90;;;;;;5092263;28;20028;-61
2021/01/29 00:33:54;;;;;;;1.70;0.50;;;8.50;99.90;;;;;;5087510;28;20981;-64
2021/01/29 00:36:20;;;;;;;0.82;0.55;;;8.40;99.90;;;;;;5091463;28;20493;-62
2021/01/29 00:38:45;;;;;;;0.98;0.50;;;8.40;99.90;;;;;;5091877;28;20107;-62
2021/01/29 00:41:11;;;;;;;0.45;0.40;;;8.30;99.90;;;;;;5092693;28;20492;-62
2021/01/29 00:43:37;;;;;;;1.48;0.45;;;8.30;99.90;;;;;;5094019;28;20051;-62
2021/01/29 00:46:03;;;;;;;1.55;0.40;;;8.30;99.90;;;;;;5093105;28;20680;-62
2021/01/29 00:48:29;;;;;;;1.00;0.32;;;8.30;99.90;;;;;;5093937;28;20028;-62
2021/01/29 00:50:54;;;;;;;0.25;0.20;;;8.30;99.90;;;;;;5093203;28;20046;-65
2021/01/29 00:53:20;;;;;;;0.43;0.25;;;8.30;99.90;;;;;;5092378;28;20093;-63
2021/01/29 00:55:45;;;;;;;0.40;0.30;;;8.40;99.90;;;;;;5093605;28;20028;-62
2021/01/29 00:58:11;;;;;;;1.27;0.30;;;8.50;99.90;;;;;;5091452;28;20032;-62
2021/01/29 01:00:37;;;;;;;1.00;0.40;;;8.50;99.90;;;;;;5093757;28;20393;-62
2021/01/29 01:03:02;;;;;;;0.60;0.30;;;8.50;99.90;;;;;;5093556;28;20388;-63
2021/01/29 01:05:28;;;;;;;0.40;0.40;;;8.60;99.90;;;;;;5092439;28;20024;-62
2021/01/29 01:07:55;;;;;;;1.15;0.40;;;8.60;99.90;;;;;;5090097;28;20028;-64
2021/01/29 01:10:21;;;;;;;0.52;0.38;;;8.60;99.90;;;;;;5090091;28;20032;-61
2021/01/29 01:12:47;;;;;;;1.65;0.52;;;8.60;99.90;;;;;;5093266;28;20501;-61
2021/01/29 01:15:25;;;;;;;0.57;0.40;;;8.60;99.90;;;;;;5092421;28;20102;-61
2021/01/29 01:17:52;;;;;;;1.27;0.40;;;8.60;99.90;;;;;;5092911;28;20535;-62
2021/01/29 01:20:20;;;;;;;1.00;0.50;;;8.70;99.90;;;;;;5092474;28;20107;-61
2021/01/29 01:22:46;;;;;;;1.08;0.45;;;8.70;99.90;;;;;;5093231;28;20093;-62
2021/01/29 01:25:13;;;;;;;0.55;0.55;;;8.70;99.90;;;;;;5092137;28;20780;-62
2021/01/29 01:27:39;;;;;;;3.30;0.52;;;8.70;99.90;;;;;;5092654;28;20080;-64
2021/01/29 01:30:07;;;;;;;0.77;0.70;;;8.70;99.90;;;;;;5092346;28;20088;-62
2021/01/29 01:32:33;;;;;;;0.85;0.43;;;8.70;99.90;;;;;;5093137;28;20032;-62
2021/01/29 01:34:58;;;;;;;0.45;0.30;;;8.70;99.90;;;;;;5091926;28;20059;-63
2021/01/29 01:37:24;;;;;;;0.40;0.40;;;8.70;99.90;;;;;;5091630;28;20496;-62
2021/01/29 01:39:49;;;;;;;2.38;0.57;;;8.60;99.90;;;;;;5092312;28;20035;-62
2021/01/29 01:42:15;;;;;;;0.95;0.60;;;8.60;99.90;;;;;;5092250;28;20032;-63
2021/01/29 01:44:43;;;;;;;0.65;0.63;;;8.50;99.90;;;;;;5092896;28;20028;-62
2021/01/29 01:47:19;;;;;;;2.67;0.60;;;8.50;99.90;;;;;;5092382;28;20077;-62
2021/01/29 01:49:47;;;;;;;0.75;0.55;;;8.50;99.90;;;;;;5092800;28;20028;-62
2021/01/29 01:52:20;;;;;;;0.75;0.70;;;8.50;99.90;;;;;;5092056;28;20024;-62
2021/01/29 01:54:51;;;;;;;1.02;0.77;;;8.40;99.90;;;;;;5092166;28;20035;-62
2021/01/29 01:57:23;;;;;;;1.38;0.60;;;8.40;99.90;;;;;;5091452;28;20139;-63
2021/01/29 01:59:54;;;;;;;2.30;0.50;;;8.40;99.90;;;;;;5092741;28;20080;-62
2021/01/29 02:02:25;;;;;;;0.50;0.50;;;8.30;99.90;;;;;;5092791;28;20082;-64
2021/01/29 02:04:52;;;;;;;0.90;0.57;;;8.30;99.90;;;;;;5072497;28;20489;-62
2021/01/29 02:07:32;;;;;;;2.65;0.77;;;8.40;99.90;;;;;;5071253;28;20028;-64
2021/01/29 02:10:00;;;;;;;2.60;0.70;;;8.40;99.90;;;;;;5090711;28;20024;-63
2021/01/29 02:12:26;;;;;;;3.47;0.60;;;8.40;99.90;;;;;;5090597;28;20077;-62
2021/01/29 02:14:52;;;;;;;0.98;0.70;;;8.40;99.90;;;;;;5092368;28;20102;-62
2021/01/29 02:17:18;;;;;;;1.95;0.80;;;8.40;99.90;;;;;;5091232;28;20110;-63
2021/01/29 02:20:12;;;;;;;1.70;0.60;;;8.40;99.90;;;;;;5090909;28;20038;-62
2021/01/29 02:22:40;;;;;;;0.73;0.43;;;8.30;99.90;;;;;;5091817;28;20538;-62
2021/01/29 02:25:24;;;;;;;0.50;0.47;;;8.30;99.90;;;;;;5091289;28;20027;-62
2021/01/29 02:27:57;;;;;;;0.63;0.40;;;8.30;99.90;;;;;;5091475;28;20032;-63
2021/01/29 02:30:41;;;;;;;6.03;0.60;;;8.40;99.90;;;;;;5092418;28;20035;-62
2021/01/29 02:33:36;;;;;;;2.08;0.43;;;8.40;99.90;;;;;;5090824;28;20032;-65
2021/01/29 02:36:01;;;;;;;3.97;0.43;;;8.40;99.90;;;;;;5086678;28;20408;-62
2021/01/29 02:38:30;;;;;;;0.85;0.57;;;8.50;99.90;;;;;;5091139;28;20020;-62
2021/01/29 02:41:01;;;;;;;0.30;0.30;;;8.50;99.90;;;;;;5091383;28;20050;-65
2021/01/29 02:43:53;;;;;;;0.88;0.38;;;8.50;99.90;;;;;;5091882;28;20031;-62
2021/01/29 02:46:18;;;;;;;3.30;0.70;;;8.50;99.90;;;;;;5071059;28;20028;-62
2021/01/29 02:48:53;;;;;;;0.50;0.28;;;8.60;99.90;;;;;;5071349;28;20028;-62
2021/01/29 02:51:49;;;;;;;1.02;0.43;;;8.60;99.90;;;;;;5081531;28;20086;-62
2021/01/29 02:54:22;;;;;;;0.73;0.40;;;8.60;99.90;;;;;;5090534;28;20639;-62
2021/01/29 02:57:05;;;;;;;2.83;0.38;;;8.60;99.90;;;;;;5086411;28;20417;-63
2021/01/29 02:59:56;;;;;;;0.55;0.20;;;8.60;99.90;;;;;;5091801;28;20079;-62
2021/01/29 03:03:03;;;;;;;0.82;0.38;;;8.60;99.90;;;;;;5081907;28;20052;-63
2021/01/29 03:05:43;;;;;;;0.47;0.20;;;8.60;99.90;;;;;;5089304;28;20035;-62
2021/01/29 03:08:34;;;;;;;1.88;0.30;;;8.60;99.90;;;;;;5090320;28;20468;-63
2021/01/29 03:11:21;;;;;;;0.88;0.17;;;8.50;99.90;;;;;;5090679;28;20028;-63
2021/01/29 03:13:54;;;;;;;1.05;0.50;;;8.60;99.90;;;;;;5091750;28;20040;-63
2021/01/29 03:16:31;;;;;;;1.10;0.45;;;8.60;99.90;;;;;;5090716;28;20034;-62
2021/01/29 03:19:10;;;;;;;0.75;0.30;;;8.60;99.90;;;;;;5091405;28;20024;-64
2021/01/29 03:21:40;;;;;;;0.60;0.30;;;8.50;99.90;;;;;;5091813;28;20077;-62
2021/01/29 03:24:14;;;;;;;0.75;0.43;;;8.60;99.90;;;;;;5089052;28;20036;-62
2021/01/29 03:26:50;;;;;;;1.25;0.30;;;8.50;99.90;;;;;;5090130;28;20047;-62
2021/01/29 03:29:19;;;;;;;1.23;0.85;;;8.50;99.90;;;;;;5090595;28;20115;-62
2021/01/29 03:31:47;;;;;;;0.93;0.40;;;8.50;99.90;;;;;;5091137;28;20153;-62
2021/01/29 03:34:21;;;;;;;0.20;0.20;;;8.50;99.90;;;;;;5091543;28;20468;-62
2021/01/29 03:36:59;;;;;;;0.88;0.30;;;8.50;99.90;;;;;;5094809;28;20142;-63
2021/01/29 03:39:37;;;;;;;0.28;0.28;;;8.50;99.90;;;;;;5089050;28;20028;-63
2021/01/29 03:42:34;;;;;;;0.98;0.30;;;8.60;99.90;;;;;;5090800;28;20071;-62
2021/01/29 03:45:11;;;;;;;0.20;0.20;;;8.50;99.90;;;;;;5093714;28;20060;-65
2021/01/29 03:48:02;;;;;;;0.35;0.30;;;8.50;99.90;;;;;;5094669;28;20032;-62
2021/01/29 03:50:49;;;;;;;;;;;8.50;99.90;;;;;;5095230;28;20020;-62
2021/01/29 03:53:32;;;;;;;0.40;0.35;;;8.60;99.90;;;;;;5094130;28;20364;-62
2021/01/29 03:56:19;;;;;;;0.93;0.10;;;8.70;99.90;;;;;;5093959;28;20031;-64
2021/01/29 03:59:19;;;;;;;0.47;0.20;;;8.70;99.90;;;;;;5094613;28;20431;-62
2021/01/29 04:02:00;;;;;;;0.57;0.30;;;8.70;99.90;;;;;;5094355;28;20133;-62
2021/01/29 04:04:36;;;;;;;1.27;0.20;;;8.70;99.90;;;;;;5094590;28;20028;-62
2021/01/29 04:07:15;;;;;;;0.50;0.20;;;8.70;99.90;;;;;;5093801;28;20036;-62
2021/01/29 04:09:50;;;;;;;0.30;0.20;;;8.70;99.90;;;;;;5093534;28;20028;-61
2021/01/29 04:12:25;;;;;;;0.98;0.17;;;8.60;99.90;;;;;;5075760;28;20104;-61
2021/01/29 04:15:07;;;;;;;2.60;0.35;;;8.60;99.90;;;;;;5094427;28;20035;-61
2021/01/29 04:17:51;;;;;;;0.93;0.40;;;8.60;99.90;;;;;;5094368;28;20465;-61
2021/01/29 04:20:43;;;;;;;0.57;0.20;;;8.50;99.90;;;;;;5093012;28;20106;-62
2021/01/29 04:23:18;;;;;;;0.82;0.20;;;8.50;99.90;;;;;;5083491;28;20043;-62
2021/01/29 04:26:01;;;;;;;0.10;0.10;;;8.50;99.90;;;;;;5094745;28;20111;-61
2021/01/29 04:28:30;;;;;;;0.82;0.40;;;8.40;99.90;;;;;;5093609;28;20127;-62
2021/01/29 04:30:59;;;;;;;0.88;0.30;;;8.40;99.90;;;;;;5094010;28;20035;-64
2021/01/29 04:33:33;;;;;;;0.60;0.28;;;8.40;99.90;;;;;;5094418;28;20111;-61
2021/01/29 04:36:02;;;;;;;1.58;0.30;;;8.40;99.90;;;;;;5092173;28;20079;-63
2021/01/29 04:38:38;;;;;;;4.88;0.80;;;8.40;99.90;;;;;;5088787;28;20480;-63
2021/01/29 04:41:27;;;;;;;3.03;1.08;;;8.40;99.90;;;;;;5093291;28;20050;-61
2021/01/29 04:44:16;;;;;;;3.65;1.63;;;8.30;99.90;;;;;;5092827;28;20024;-62
2021/01/29 04:46:44;;;;;;;3.38;1.48;;;8.30;99.90;;;;;;5093801;28;20028;-61
2021/01/29 04:49:32;;;;;;;1.65;0.88;;;8.30;99.90;;;;;;5093031;28;20469;-62
2021/01/29 04:52:14;;;;;;;1.42;0.75;;;8.30;99.90;;;;;;5092190;28;20436;-64
2021/01/29 04:54:52;;;;;;;1.48;0.63;;;8.20;99.90;;;;;;5093682;28;20046;-62
2021/01/29 04:57:43;;;;;;;2.20;0.50;;;8.20;99.90;;;;;;5092836;28;20042;-62
2021/01/29 05:00:38;;;;;;;0.15;0.15;;;8.20;99.90;;;;;;5092867;28;20032;-62
2021/01/29 05:03:13;;;;;;;1.50;0.43;;;8.20;99.90;;;;;;5093108;28;20032;-61
2021/01/29 05:05:53;;;;;;;2.63;0.40;;;8.20;99.90;;;;;;5093125;28;20493;-62
2021/01/29 05:09:01;;;;;;;2.38;0.38;;;8.10;99.90;;;;;;5092513;28;20109;-61
2021/01/29 05:11:52;;;;;;;0.52;0.20;;;8.20;99.90;;;;;;5073381;28;20021;-61
2021/01/29 05:14:39;;;;;;;1.27;0.25;;;8.20;99.90;;;;;;5072646;28;20111;-61
2021/01/29 05:17:32;;;;;;;0.10;0.10;;;8.20;99.90;;;;;;5072396;28;20527;-62
2021/01/29 05:20:17;;;;;;;1.20;0.22;;;8.30;99.90;;;;;;5072874;28;20105;-63
2021/01/29 05:23:06;;;;;;;1.25;0.20;;;8.30;99.90;;;;;;5093051;28;20056;-61
2021/01/29 05:26:09;;;;;;;1.30;0.30;;;8.40;99.90;;;;;;5093290;28;20027;-62
2021/01/29 05:28:56;;;;;;;0.93;0.20;;;8.40;99.90;;;;;;5093038;28;20500;-61
2021/01/29 05:31:30;;;;;;;0.98;0.20;;;8.40;99.90;;;;;;5091595;28;20433;-62
2021/01/29 05:34:20;;;;;;;2.08;0.22;;;8.30;99.90;;;;;;5091877;28;20058;-61
2021/01/29 05:37:04;;;;;;;1.38;0.13;;;8.30;99.90;;;;;;5092620;28;20105;-62
2021/01/29 05:39:38;;;;;;;1.02;0.17;;;8.20;99.90;;;;;;5087559;28;20028;-61
2021/01/29 05:42:26;;;;;;;1.58;0.15;;;8.20;99.90;;;;;;5077084;28;20030;-62
2021/01/29 05:45:17;;;;;;;0.60;0.25;;;8.20;99.90;;;;;;5093215;28;20028;-62
2021/01/29 05:47:56;;;;;;;0.10;0.10;;;8.20;99.90;;;;;;5092464;28;20078;-62
2021/01/29 05:50:40;;;;;;;1.35;0.17;;;8.10;99.90;;;;;;5092102;28;20029;-62
2021/01/29 05:53:05;;;;;;;0.88;0.32;;;8.10;99.90;;;;;;5092027;28;20042;-62
2021/01/29 05:55:34;;;;;;;0.15;0.15;;;8.00;99.90;;;;;;5092334;28;20032;-62
2021/01/29 05:58:38;;;;;;;0.88;0.38;;;8.00;99.90;;;;;;5092220;28;20071;-63
2021/01/29 06:01:17;;;;;;;1.13;0.30;;;7.90;99.90;;;;;;5091605;28;20040;-62
2021/01/29 06:04:03;;;;;;;1.17;0.50;;;7.80;99.90;;;;;;5092701;28;20024;-62
2021/01/29 06:06:53;;;;;;;0.50;0.20;;;7.80;99.90;;;;;;5092270;28;20031;-62
2021/01/29 06:09:27;;;;;;;0.63;0.20;;;7.70;99.90;;;;;;5091336;28;20031;-61
2021/01/29 06:12:06;;;;;;;0.45;0.20;;;7.60;99.90;;;;;;5092357;28;20035;-62
2021/01/29 06:15:09;;;;;;;2.15;0.50;;;7.60;99.90;;;;;;5092083;28;20035;-61
2021/01/29 06:18:11;;;;;;;0.45;0.30;;;7.70;99.90;;;;;;5091153;28;20427;-61
2021/01/29 06:21:04;;;;;;;0.40;0.30;;;7.70;99.90;;;;;;5090639;28;20024;-62
2021/01/29 06:23:30;;;;;;;0.98;0.30;;;7.70;99.90;;;;;;5088429;28;20028;-62
2021/01/29 06:26:27;;;;;;;0.93;0.40;;;7.70;99.90;;;;;;5088194;28;20381;-63
2021/01/29 06:29:00;;;;;;;1.73;0.45;;;7.80;99.90;;;;;;5086961;28;20044;-62
2021/01/29 06:31:57;;;;;;;2.83;0.30;;;7.80;99.90;;;;;;5090009;28;20070;-61
2021/01/29 06:35:10;;;;;;;0.28;0.20;;;7.80;99.90;;;;;;5088457;28;20020;-61
2021/01/29 06:37:54;;;;;;;0.28;0.20;;;7.80;99.90;;;;;;5067834;28;20064;-62
2021/01/29 06:40:29;;;;;;;0.93;0.20;;;7.90;99.90;;;;;;5066011;28;20052;-62
2021/01/29 06:43:14;;;;;;;0.30;0.20;;;8.00;99.90;;;;;;5067760;28;20061;-61
2021/01/29 06:46:01;;;;;;;1.08;0.60;;;8.00;99.90;;;;;;5069065;28;20032;-62
2021/01/29 06:48:36;;;;;;;0.90;0.40;;;8.00;99.90;;;;;;5069039;28;20032;-61
2021/01/29 06:51:43;;;;;;;1.27;0.60;;;8.00;99.90;;;;;;5068369;28;20029;-63
2021/01/29 06:54:46;;;;;;;1.13;0.30;;;7.90;99.90;;;;;;5068965;28;20112;-62
2021/01/29 06:57:18;;;;;;;1.02;0.30;;;7.90;99.90;;;;;;5068754;28;20031;-62
2021/01/29 07:00:08;;;;;;;1.45;0.28;;;7.80;99.90;;;;;;5069074;28;20112;-62
2021/01/29 07:03:04;;;;;;;1.45;0.40;;;7.80;99.90;;;;;;5067370;28;20119;-62
2021/01/29 07:06:03;;;;;;;1.02;0.40;;;7.90;99.90;;;;;;5069399;28;20536;-63
2021/01/29 07:08:57;;;;;;;0.85;0.30;;;7.80;99.90;;;;;;5070359;28;20085;-62
2021/01/29 07:11:50;;;;;;;1.20;0.20;;;7.90;99.90;;;;;;5071394;28;20024;-62
2021/01/29 07:14:54;;;;;;;0.20;0.13;;;8.00;99.90;;;;;;5072423;28;20086;-63
2021/01/29 07:17:45;;;;;;;1.92;0.10;;;8.10;99.90;;;;;;5069524;28;20119;-62
2021/01/29 07:20:36;;;;;;;1.55;0.30;;;8.10;99.90;;;;;;5073053;28;20035;-62
2021/01/29 07:23:24;;;;;;;0.82;0.13;;;8.20;99.90;;;;;;5072241;28;20017;-64
2021/01/29 07:26:16;;;;;;;0.73;0.17;;;8.10;99.90;;;;;;5073329;28;20024;-62
2021/01/29 07:29:01;;;;;;;1.27;0.13;;;8.10;99.90;;;;;;5072603;28;20033;-61
2021/01/29 07:31:50;;;;;;;0.93;0.22;;;8.10;99.90;;;;;;5072519;28;20036;-62
2021/01/29 07:34:36;;;;;;;2.63;0.20;;;8.30;99.90;;;;;;5069094;28;20036;-62
2021/01/29 07:37:55;;;;;;;0.38;0.10;;;8.30;99.90;;;;;;5091759;28;20366;-64
2021/01/29 07:40:48;;;;;;;0.77;0.30;;;8.40;99.90;;;;;;5048498;28;20033;-62
2021/01/29 07:44:15;;;;;;;0.10;0.10;;;8.40;99.90;;;;;;5027065;28;20025;-63
2021/01/29 07:46:47;;;;;;;0.10;0.10;;;8.40;99.90;;;;;;4962846;28;20062;-62
2021/01/29 07:49:43;;;;;;;0.17;0.15;;;8.40;99.90;;;;;;4960728;28;20079;-62
2021/01/29 07:52:20;;;;;;;0.40;0.20;;;8.50;99.90;;;;;;4962009;28;20116;-62
2021/01/29 07:54:54;;;;;;;0.47;0.20;;;8.60;99.90;;;;;;4961477;28;20035;-63
2021/01/29 07:57:28;;;;;;;1.17;0.35;;;8.60;99.90;;;;;;4959723;28;20050;-62
2021/01/29 08:00:21;;;;;;;0.28;0.15;;;8.60;99.90;;;;;;4961542;28;20478;-63
2021/01/29 08:03:37;;;;;;;1.75;0.20;;;8.70;99.90;;;;;;4960746;28;20260;-63
2021/01/29 08:06:05;;;;;;;0.65;0.25;;;8.80;99.90;;;;;;4886016;29;20112;-64
2021/01/29 08:08:37;;;;;;;1.13;0.20;;;8.90;99.90;;;;;;4886857;29;20098;-62
2021/01/29 08:11:06;;;;;;;1.02;0.10;;;8.90;99.90;;;;;;4914754;29;20127;-64
2021/01/29 08:13:32;;;;;;;0.52;0.20;;;8.90;99.90;;;;;;4943484;29;20413;-62
2021/01/29 08:16:01;;;;;;;0.60;0.20;;;9.00;99.90;;;;;;4953563;29;20122;-62
2021/01/29 08:18:45;;;;;;;4.22;0.75;;;9.10;99.90;;;;;;5005144;28;20061;-62
2021/01/29 08:21:15;;;;;;;4.35;0.30;;;9.20;99.90;;;;;;5011350;28;20034;-62
2021/01/29 08:24:11;;;;;;;0.68;0.10;;;9.30;99.90;;;;;;5011857;28;20065;-62
2021/01/29 08:27:03;;;;;;;0.45;0.13;;;9.40;99.90;;;;;;5012126;28;20467;-62
2021/01/29 08:29:53;;;;;;;0.65;0.22;;;9.40;99.90;;;;;;5007055;28;20395;-62
2021/01/29 08:32:36;;;;;;;0.93;0.13;;;9.40;99.90;;;;;;5011186;28;20510;-62
2021/01/29 08:35:39;;;;;;;1.13;0.13;;;9.50;99.90;;;;;;5010398;28;20526;-65
2021/01/29 08:38:23;;;;;;;0.63;0.35;;;9.50;99.90;;;;;;5076551;28;20503;-63
2021/01/29 08:40:52;;;;;;;0.50;0.20;;;9.60;99.90;;;;;;5094293;28;20043;-61
2021/01/29 08:43:37;;;;;;;0.63;0.13;;;9.60;99.90;;;;;;5091326;28;20103;-62
2021/01/29 08:46:23;;;;;;;1.50;0.15;;;9.60;99.90;;;;;;5091989;28;20078;-64
2021/01/29 08:49:17;;;;;;;0.85;0.20;;;9.60;99.40;;;;;;5092885;28;20027;-62
2021/01/29 08:52:16;;;;;;;0.55;0.20;;;9.60;99.90;;;;;;5092061;28;20020;-62
2021/01/29 08:54:50;;;;;;;0.20;0.20;;;9.50;99.90;;;;;;5092246;28;20190;-63
2021/01/29 08:57:27;;;;;;;2.05;0.10;;;9.50;99.50;;;;;;5091773;28;20472;-63
2021/01/29 08:59:58;;;;;;;1.02;0.30;;;9.50;98.80;;;;;;5090366;28;20073;-62
2021/01/29 09:03:07;;;;;;;0.52;0.30;;;9.60;98.60;;;;;;5091304;28;20093;-62
2021/01/29 09:05:34;;;;;;;0.93;0.10;;;9.60;96.10;;;;;;5090136;28;20024;-63
2021/01/29 09:08:03;;;;;;;2.72;0.20;;;9.60;94.90;;;;;;5086218;28;20048;-64
2021/01/29 09:11:08;;;;;;;1.27;0.30;;;9.70;94.10;;;;;;5090464;28;20028;-62
2021/01/29 09:13:35;;;;;;;2.65;0.45;;;9.80;93.20;;;;;;5089846;28;20096;-63
2021/01/29 09:16:17;;;;;;;0.80;0.20;;;9.90;93.00;;;;;;5091745;28;20043;-65
2021/01/29 09:19:19;;;;;;;0.80;0.30;;;9.80;93.50;;;;;;5091160;28;20028;-63
2021/01/29 09:22:03;;;;;;;2.03;0.60;;;9.90;93.40;;;;;;5029189;28;20038;-62
2021/01/29 09:24:50;;;;;;;1.45;0.30;;;9.90;92.40;;;;;;5084415;28;20044;-63
2021/01/29 09:27:35;;;;;;;1.05;0.30;;;9.90;90.90;;;;;;5089282;28;20028;-64
2021/01/29 09:30:15;;;;;;;4.13;0.40;;;9.90;92.10;;;;;;5089801;28;20040;-62
2021/01/29 09:32:44;;;;;;;1.65;0.32;;;10.00;91.20;;;;;;5090417;28;20038;-63
2021/01/29 09:35:15;;;;;;;1.13;0.50;;;10.20;90.60;;;;;;5087727;28;20051;-63
2021/01/29 09:37:51;;;;;;;3.10;0.43;;;10.40;88.00;;;;;;5091119;28;20150;-61
2021/01/29 09:40:22;;;;;;;1.30;0.30;;;10.60;89.10;;;;;;5089060;28;20031;-61
2021/01/29 09:42:59;;;;;;;3.38;0.70;;;10.70;86.20;;;;;;5090042;28;20473;-61
2021/01/29 09:45:27;;;;;;;0.95;0.40;;;10.70;84.20;;;;;;5090749;28;20602;-64
2021/01/29 09:48:03;;;;;;;2.13;0.40;;;10.80;82.50;;;;;;5090335;28;20024;-62
2021/01/29 09:50:31;;;;;;;4.78;1.08;;;10.80;82.50;;;;;;5091164;28;20098;-62
2021/01/29 09:53:06;;;;;;;1.13;0.40;;;10.70;81.40;;;;;;5091669;28;20024;-61
2021/01/29 09:55:43;;;;;;;0.50;0.30;;;10.70;80.10;;;;;;5088348;28;20026;-62
2021/01/29 09:58:21;;;;;;;3.53;0.65;;;10.70;80.90;;;;;;5090107;28;20609;-61
2021/01/29 10:01:19;;;;;;;3.83;0.50;;;10.80;80.60;;;;;;5091242;28;20036;-60
2021/01/29 10:04:00;;;;;;;3.15;0.57;;;10.90;81.60;;;;;;5084948;28;20044;-60
2021/01/29 10:06:34;;;;;;;2.05;0.60;;;11.00;76.10;;;;;;5089576;28;20686;-61
2021/01/29 10:09:09;;;;;;;3.40;0.80;;;11.00;77.00;;;;;;5090664;28;20024;-62
2021/01/29 10:11:44;;;;;;;4.18;0.65;;;11.00;76.80;;;;;;5088762;28;20024;-60
2021/01/29 10:14:26;;;;;;;5.03;0.65;;;11.00;73.70;;;;;;5087290;28;20028;-61
2021/01/29 10:16:57;;;;;;;7.00;0.93;;;11.00;75.80;;;;;;5087686;28;20028;-60
2021/01/29 10:19:29;;;;;;;3.97;0.93;;;11.00;76.20;;;;;;5089070;28;20148;-61
2021/01/29 10:21:57;;;;;;;7.32;1.17;;;11.00;74.00;;;;;;5087890;28;20528;-61
2021/01/29 10:24:49;;;;;;;4.75;0.93;;;10.90;72.80;;;;;;5088569;28;20020;-61
2021/01/29 10:27:46;;;;;;;6.45;1.17;;;10.60;73.20;;;;;;5081800;28;20036;-60
2021/01/29 10:30:38;;;;;;;7.55;1.23;;;10.50;75.20;;;;;;5074823;28;20032;-62
2021/01/29 10:33:19;;;;;;;3.05;1.05;;;10.40;75.50;;;;;;5083446;28;20425;-63
2021/01/29 10:35:49;;;;;;;8.93;0.93;;;10.40;73.60;;;;;;5089224;28;20091;-64
2021/01/29 10:38:24;;;;;;;9.02;2.00;;;10.50;73.20;;;;;;5086744;28;20028;-62
2021/01/29 10:41:01;;;;;;;8.10;1.45;;;10.60;74.80;;;;;;5088164;28;20067;-62
2021/01/29 10:43:27;;;;;;;5.13;1.00;;;10.50;74.70;;;;;;5086480;28;20053;-68
2021/01/29 10:46:08;;;;;;;6.65;0.85;;;10.50;74.10;;;;;;5090191;28;20417;-69
2021/01/29 10:48:48;;;;;;;7.88;1.60;;;10.60;73.70;;;;;;5088682;28;20105;-69
2021/01/29 10:51:53;;;;;;;5.53;1.20;;;10.70;73.90;;;;;;5088121;28;20499;-69
2021/01/29 10:54:20;;;;;;;6.32;1.35;;;10.80;72.80;;;;;;5084805;28;20031;-66
2021/01/29 10:57:15;;;;;;;7.45;1.02;;;10.90;72.60;;;;;;5088615;28;20032;-66
2021/01/29 11:00:14;;;;;;;4.88;1.13;;;11.00;72.40;;;;;;5048897;28;20068;-69
2021/01/29 11:02:51;;;;;;;4.82;0.80;;;11.30;71.30;;;;;;5087311;28;20081;-64
2021/01/29 11:05:24;;;;;;;5.10;1.90;;;11.50;69.60;;;;;;5088056;28;20024;-65
2021/01/29 11:07:52;;;;;;;6.93;1.48;;;11.50;69.00;;;;;;5089376;28;20020;-65
2021/01/29 11:10:21;;;;;;;6.38;1.15;;;11.50;70.60;;;;;;5089720;28;20111;-66
2021/01/29 11:13:12;;;;;;;5.93;1.08;;;11.50;68.80;;;;;;5090345;28;20028;-67
2021/01/29 11:15:45;;;;;;;7.25;2.17;;;11.40;70.40;;;;;;5088863;28;20039;-67
2021/01/29 11:18:22;;;;;;;9.68;1.02;;;11.40;70.90;;;;;;5087389;28;20027;-67
2021/01/29 11:20:49;;;;;;;6.65;1.02;;;11.30;70.00;;;;;;5090481;28;20033;-71
2021/01/29 11:23:15;;;;;;;5.80;0.98;;;11.30;70.70;;;;;;5089924;28;20078;-70
2021/01/29 11:26:14;;;;;;;4.38;1.00;;;11.20;71.00;;;;;;5090276;28;20028;-68
2021/01/29 11:29:20;;;;;;;6.50;1.03;;;11.10;70.70;;;;;;5088932;28;20087;-68
2021/01/29 11:32:08;;;;;;;8.88;1.00;;;10.90;71.80;;;;;;5085949;28;20293;-64
2021/01/29 11:34:35;;;;;;;6.25;1.30;;;10.90;71.90;;;;;;5087493;28;20103;-62
2021/01/29 11:37:16;;;;;;;3.20;0.88;;;10.80;73.20;;;;;;5089822;28;20830;-64
2021/01/29 11:39:45;;;;;;;9.70;1.60;;;10.80;73.10;;;;;;5087441;28;20376;-62
2021/01/29 11:42:41;;;;;;;5.07;1.27;;;10.90;72.50;;;;;;5085840;28;20028;-63
2021/01/29 11:45:44;;;;;;;3.90;1.00;;;10.90;71.80;;;;;;5075739;28;20028;-64
2021/01/29 11:48:34;;;;;;;6.82;1.45;;;10.90;72.40;;;;;;5021854;28;20040;-61
2021/01/29 11:51:26;;;;;;;5.07;0.93;;;10.90;72.60;;;;;;5088332;28;20027;-61
2021/01/29 11:54:02;;;;;;;4.32;1.00;;;11.00;71.20;;;;;;5059321;28;20071;-66
2021/01/29 11:56:52;;;;;;;5.72;1.10;;;10.90;71.80;;;;;;5094484;28;20055;-71
2021/01/29 11:59:47;;;;;;;5.82;1.02;;;10.80;73.00;;;;;;5091412;28;20035;-65
2021/01/29 12:02:32;;;;;;;5.65;1.20;;;10.90;73.60;;;;;;5090702;28;20118;-65
2021/01/29 12:05:11;;;;;;;5.38;0.95;;;10.90;73.10;;;;;;5091666;28;20028;-67
2021/01/29 12:07:52;;;;;;;4.18;0.60;;;11.10;71.30;;;;;;5091669;28;20036;-66
2021/01/29 12:10:36;;;;;;;6.97;1.02;;;11.20;70.30;;;;;;5088138;28;20099;-70
2021/01/29 12:13:22;;;;;;;8.13;0.95;;;11.30;70.50;;;;;;5091719;28;20384;-69
2021/01/29 12:15:59;;;;;;;4.60;0.82;;;11.30;70.10;;;;;;5093215;28;20028;-79
2021/01/29 12:18:28;;;;;;;4.55;1.10;;;11.20;70.70;;;;;;5093825;28;20032;-77
2021/01/29 12:21:18;;;;;;;8.10;1.25;;;11.20;69.50;;;;;;5093454;28;20020;-72
2021/01/29 12:24:06;;;;;;;6.10;0.80;;;11.20;69.50;;;;;;5093609;28;20029;-72
2021/01/29 12:26:47;;;;;;;9.18;1.63;;;11.30;68.60;;;;;;5093910;28;20024;-74
2021/01/29 12:29:21;;;;;;;4.43;0.98;;;11.20;68.20;;;;;;5093375;28;20058;-75
2021/01/29 12:32:19;;;;;;;8.55;1.00;;;11.20;67.90;;;;;;5094059;28;20083;-74
2021/01/29 12:34:54;;;;;;;8.10;1.08;;;11.20;67.90;;;;;;5094330;28;20020;-70
2021/01/29 12:37:39;;;;;;;6.40;1.40;;;11.30;68.60;;;;;;5088121;28;20043;-68
2021/01/29 12:40:14;;;;;;;8.45;1.00;;;11.30;68.50;;;;;;5088897;28;20036;-67
2021/01/29 12:42:46;;;;;;;7.85;1.05;;;11.30;68.50;;;;;;5093226;28;20035;-68
2021/01/29 12:45:25;;;;;;;6.50;1.50;;;11.40;68.40;;;;;;5093081;28;20036;-68
2021/01/29 12:47:58;;;;;;;8.40;1.80;;;11.30;68.50;;;;;;5097658;28;20023;-69
2021/01/29 12:50:56;;;;;;;6.43;1.40;;;11.30;68.90;;;;;;5092904;28;20672;-69
2021/01/29 12:53:48;;;;;;;3.63;0.88;;;11.20;69.20;;;;;;5093241;28;20460;-70
2021/01/29 12:56:20;;;;;;;6.43;0.85;;;11.20;70.10;;;;;;5078042;28;20526;-69
2021/01/29 12:58:54;;;;;;;6.75;1.35;;;11.10;70.40;;;;;;5090678;28;20043;-71
2021/01/29 13:01:34;;;;;;;6.25;1.13;;;11.00;71.00;;;;;;5091589;28;20032;-73
2021/01/29 13:04:18;;;;;;;;;;;10.90;72.00;;;;;;5073642;28;20385;-69
2021/01/29 13:06:55;;;;;;;3.33;1.05;;;10.90;71.60;;;;;;5088694;28;20293;-72
2021/01/29 13:09:24;;;;;;;6.18;0.82;;;10.80;72.20;;;;;;5090387;28;20469;-68
2021/01/29 13:12:10;;;;;;;5.50;1.20;;;10.90;71.80;;;;;;5075299;28;20032;-71
2021/01/29 13:14:47;;;;;;;3.28;0.65;;;10.90;71.80;;;;;;5083050;28;20024;-68
2021/01/29 13:17:51;;;;;;;4.25;0.75;;;11.00;71.60;;;;;;5080554;28;20044;-69
2021/01/29 13:20:23;;;;;;;4.22;0.95;;;11.10;71.50;;;;;;5064060;28;20109;-75
2021/01/29 13:22:57;;;;;;;2.60;0.63;;;11.00;72.40;;;;;;5078937;28;20095;-75
2021/01/29 13:25:29;;;;;;;6.57;0.60;;;11.10;72.80;;;;;;5090582;28;20020;-72
2021/01/29 13:28:12;;;;;;;5.32;0.60;;;11.10;72.50;;;;;;5078436;28;20036;-68
2021/01/29 13:30:40;;;;;;;1.00;0.38;;;11.20;72.50;;;;;;5087765;28;20547;-67
2021/01/29 13:33:27;;;;;;;1.83;0.28;;;11.20;73.10;;;;;;5082695;28;20160;-68
2021/01/29 13:36:28;;;;;;;3.10;0.43;;;11.10;72.70;;;;;;5087177;28;20071;-68
2021/01/29 13:38:53;;;;;;;;;;;11.00;73.20;;;;;;5090370;28;20044;-68
2021/01/29 13:41:45;;;;;;;0.75;0.28;;;10.90;73.40;;;;;;5088981;28;19908;-68
2021/01/29 13:44:20;;;;;;;1.38;0.43;;;10.90;73.80;;;;;;5070528;28;20036;-75
2021/01/29 13:46:50;;;;;;;1.77;0.75;;;11.00;73.90;;;;;;5074469;28;20377;-70
2021/01/29 13:49:29;;;;;;;0.55;0.30;;;11.00;73.70;;;;;;5083557;28;20078;-70
2021/01/29 13:51:56;;;;;;;3.63;0.60;;;11.10;73.20;;;;;;5071289;28;20078;-76
2021/01/29 13:54:48;;;;;;;1.75;0.65;;;11.10;73.50;;;;;;5079171;28;20032;-68
2021/01/29 13:57:43;;;;;;;1.50;0.40;;;11.00;73.70;;;;;;5073323;28;20052;-66
2021/01/29 14:00:25;;;;;;;1.55;0.40;;;11.00;74.40;;;;;;5082508;28;20126;-72
2021/01/29 14:02:58;;;;;;;1.35;0.40;;;11.00;73.70;;;;;;5087272;28;20473;-66